Time;durP1;ratioP1;P1;durP2;ratioP2;P2;SDS_P1;SDS_P2;PMS_P1;PMS_P2;Temp;Humidity;BMP_temperature;BMP_pressure;BME280_temperature;BME280_humidity;BME280_pressure;Samples;Min_cycle;Max_cycle;Signal;HPM_P1;HPM_P2
2022/07/29 00:01:54;;;;;;;6.47;4.28;;;;;;;23.71;43.93;98958.84;5126449;28;20055;-70
2022/07/29 00:04:21;;;;;;;5.35;4.32;;;;;;;23.72;44.01;98969.47;5126717;28;20059;-69
2022/07/29 00:06:50;;;;;;;6.32;4.28;;;;;;;23.66;44.14;98967.50;5126676;28;20062;-70
2022/07/29 00:09:17;;;;;;;6.30;4.43;;;;;;;23.28;44.21;98907.00;5126302;28;20052;-70
2022/07/29 00:11:45;;;;;;;9.15;4.63;;;;;;;23.63;44.27;98962.44;5125591;28;20105;-70
2022/07/29 00:14:12;;;;;;;8.73;5.70;;;;;;;23.50;44.50;98960.31;5126578;28;20055;-70
2022/07/29 00:16:39;;;;;;;13.77;11.88;;;;;;;23.59;44.28;98961.94;5126504;28;20051;-70
2022/07/29 00:19:07;;;;;;;8.48;6.40;;;;;;;23.56;44.34;98961.47;5126229;28;20043;-70
2022/07/29 00:21:34;;;;;;;6.82;4.95;;;;;;;23.49;44.46;98965.88;5126197;28;20085;-70
2022/07/29 00:24:03;;;;;;;6.40;5.80;;;;;;;23.47;44.82;98967.94;5126413;28;20311;-70
2022/07/29 00:26:31;;;;;;;6.97;5.00;;;;;;;23.49;44.75;98965.88;5126234;28;20113;-70
2022/07/29 00:28:59;;;;;;;4.55;3.78;;;;;;;23.40;45.02;98966.94;5126026;28;20116;-69
2022/07/29 00:31:26;;;;;;;9.48;4.28;;;;;;;22.63;44.63;98818.91;5126269;28;20056;-69
2022/07/29 00:33:54;;;;;;;5.88;3.90;;;;;;;23.54;44.44;98958.09;5126231;28;20059;-69
2022/07/29 00:36:20;;;;;;;9.60;4.13;;;;;;;23.52;44.45;98955.56;5125951;28;20327;-69
2022/07/29 00:38:48;;;;;;;6.53;3.70;;;;;;;23.27;44.84;98932.34;5126015;28;20110;-69
2022/07/29 00:41:19;;;;;;;8.23;3.92;;;;;;;23.49;44.83;98944.25;5126466;28;20089;-69
2022/07/29 00:43:47;;;;;;;5.43;4.30;;;;;;;23.31;44.94;98917.47;5126008;28;20104;-70
2022/07/29 00:46:14;;;;;;;5.35;4.00;;;;;;;23.37;44.98;98951.91;5125748;28;20052;-70
2022/07/29 00:48:41;;;;;;;7.90;4.07;;;;;;;23.30;45.39;98951.78;5125832;28;20059;-69
2022/07/29 00:51:10;;;;;;;11.63;7.55;;;;;;;23.25;45.11;98931.66;5125704;28;20066;-69
2022/07/29 00:53:37;;;;;;;10.88;8.85;;;;;;;23.32;45.38;98951.59;5126066;28;20112;-69
2022/07/29 00:56:05;;;;;;;11.23;7.97;;;;;;;22.48;45.38;98817.94;5126080;28;20101;-69
2022/07/29 00:58:33;;;;;;;8.10;5.65;;;;;;;23.33;45.78;98937.06;5125554;28;20051;-69
2022/07/29 01:01:00;;;;;;;8.02;4.28;;;;;;;23.25;45.60;98948.72;5125686;28;20060;-69
2022/07/29 01:03:28;;;;;;;4.57;3.85;;;;;;;23.29;45.55;98947.38;5125700;28;20101;-69
2022/07/29 01:05:55;;;;;;;4.70;4.00;;;;;;;23.19;45.84;98956.69;5125993;28;20056;-69
2022/07/29 01:08:24;;;;;;;5.75;4.47;;;;;;;23.27;45.87;98954.00;5126011;28;20116;-69
2022/07/29 01:10:52;;;;;;;9.00;5.40;;;;;;;23.06;45.55;98927.50;5125760;28;20044;-70
2022/07/29 01:13:20;;;;;;;9.15;7.25;;;;;;;23.23;45.88;98953.47;5125568;28;20105;-69
2022/07/29 01:15:55;;;;;;;7.50;6.70;;;;;;;23.25;45.78;98948.72;5125825;28;20059;-70
2022/07/29 01:18:29;;;;;;;7.20;5.93;;;;;;;23.19;46.01;98948.59;5124770;28;20059;-69
2022/07/29 01:21:25;;;;;;;6.47;5.00;;;;;;;23.15;46.26;98936.44;5125640;28;20056;-70
2022/07/29 01:24:07;;;;;;;7.45;4.43;;;;;;;23.18;46.00;98939.63;5125579;28;20108;-70
2022/07/29 01:26:43;;;;;;;5.53;3.90;;;;;;;22.91;46.48;98921.16;5125888;28;20056;-70
2022/07/29 01:29:19;;;;;;;5.57;3.63;;;;;;;23.02;46.39;98940.53;5125247;28;20316;-70
2022/07/29 01:31:56;;;;;;;5.50;4.35;;;;;;;22.48;46.83;98858.44;5125716;28;20307;-70
2022/07/29 01:34:30;;;;;;;5.13;3.75;;;;;;;23.07;46.33;98945.41;5125717;28;20051;-70
2022/07/29 01:37:07;;;;;;;5.32;3.85;;;;;;;22.72;46.33;98889.97;5125802;28;20334;-69
2022/07/29 18:50:10;;;;;;;9.45;8.43;;;;;;;22.83;64.93;98862.56;5144504;27;20325;-68
2022/07/29 18:52:37;;;;;;;9.70;8.70;;;;;;;22.57;64.58;98797.16;5123175;28;20203;-69
2022/07/29 18:55:05;;;;;;;10.25;9.20;;;;;;;23.05;64.06;98842.03;5105915;28;20048;-72
2022/07/29 18:57:33;;;;;;;10.75;9.52;;;;;;;23.15;64.14;98853.47;5102515;28;20056;-71
2022/07/29 19:00:00;;;;;;;10.50;7.88;;;;;;;22.64;63.57;98755.78;5102495;28;20040;-69
2022/07/29 19:02:28;;;;;;;10.40;8.38;;;;;;;23.31;64.39;98852.59;5101906;28;20063;-71
2022/07/29 19:04:55;;;;;;;8.82;7.90;;;;;;;23.35;64.08;98854.75;5102031;28;20064;-71
2022/07/29 19:07:25;;;;;;;9.52;8.60;;;;;;;23.44;64.35;98855.53;5102079;28;20079;-70
2022/07/29 19:09:53;;;;;;;9.15;8.25;;;;;;;23.47;64.28;98851.66;5102222;28;20051;-70
2022/07/29 19:12:20;;;;;;;10.13;8.82;;;;;;;23.51;64.27;98855.66;5101716;28;20335;-71
2022/07/29 19:14:49;;;;;;;9.48;8.57;;;;;;;22.38;64.21;98657.97;5102696;28;20207;-75
2022/07/29 19:17:16;;;;;;;9.02;8.23;;;;;;;23.37;64.14;98814.00;5102060;28;20067;-72
2022/07/29 19:19:44;;;;;;;9.02;8.15;;;;;;;23.46;64.38;98839.13;5102210;28;20040;-71
2022/07/29 19:22:12;;;;;;;8.57;7.68;;;;;;;23.44;65.06;98871.78;5101728;28;20056;-71
2022/07/29 19:24:42;;;;;;;9.00;8.10;;;;;;;23.42;65.12;98859.44;5102072;28;20261;-72
2022/07/29 19:27:10;;;;;;;8.43;7.63;;;;;;;23.51;64.87;98856.50;5102096;28;20312;-72
2022/07/29 19:29:37;;;;;;;10.65;8.50;;;;;;;23.57;64.49;98857.66;5101831;28;20052;-72
2022/07/29 19:32:05;;;;;;;8.70;7.82;;;;;;;23.44;64.41;98847.44;5101744;28;20158;-70
2022/07/29 19:34:33;;;;;;;9.85;7.75;;;;;;;23.58;64.41;98862.88;5083981;28;20208;-70
2022/07/29 19:37:00;;;;;;;9.25;8.35;;;;;;;23.57;64.68;98873.88;5101753;28;20082;-71
2022/07/29 19:39:27;;;;;;;10.23;9.15;;;;;;;23.33;65.04;98856.78;5083649;28;20114;-71
2022/07/29 19:41:56;;;;;;;9.35;7.93;;;;;;;23.45;64.75;98853.69;5101081;28;20373;-71
2022/07/29 19:44:23;;;;;;;8.27;7.38;;;;;;;23.60;65.02;98885.19;5101391;28;20052;-71
2022/07/29 19:46:50;;;;;;;7.65;6.90;;;;;;;23.26;64.76;98828.78;5101185;28;20060;-72
2022/07/29 19:49:18;;;;;;;7.75;7.00;;;;;;;23.62;64.76;98885.00;5101187;28;20254;-71
2022/07/29 19:51:45;;;;;;;9.38;7.55;;;;;;;23.61;65.11;98883.31;5101870;28;20044;-72
2022/07/29 19:54:14;;;;;;;7.47;6.68;;;;;;;23.49;64.82;98871.22;5101180;28;20049;-72
2022/07/29 19:56:43;;;;;;;7.38;6.63;;;;;;;23.60;64.69;98884.34;5101515;28;20102;-71
2022/07/29 19:59:12;;;;;;;8.93;8.07;;;;;;;23.45;65.28;98867.19;5083026;28;20086;-71
2022/07/29 20:01:39;;;;;;;9.13;8.25;;;;;;;23.50;65.06;98875.63;5086936;28;20056;-71
2022/07/29 20:04:06;;;;;;;8.80;7.65;;;;;;;23.55;65.01;98889.44;5088068;28;20084;-70
2022/07/29 20:06:34;;;;;;;8.90;7.60;;;;;;;23.57;65.19;98898.22;5070207;28;20064;-71
2022/07/29 20:09:03;;;;;;;9.63;8.23;;;;;;;23.56;65.17;98900.09;5087548;28;20312;-71
2022/07/29 20:11:31;;;;;;;9.15;8.15;;;;;;;23.56;65.15;98897.38;5087449;28;20113;-71
2022/07/29 20:13:58;;;;;;;9.77;8.77;;;;;;;23.55;65.21;98901.13;5087140;28;20110;-71
2022/07/29 20:16:27;;;;;;;8.57;7.78;;;;;;;23.51;65.44;98894.38;5087501;28;20052;-70
2022/07/29 20:18:54;;;;;;;8.98;8.07;;;;;;;23.53;65.07;98896.91;5087304;28;20052;-71
2022/07/29 20:21:21;;;;;;;8.65;7.85;;;;;;;23.45;66.03;98896.94;5087322;28;20056;-71
2022/07/29 20:23:48;;;;;;;8.32;7.53;;;;;;;23.36;65.29;98883.47;5087226;28;20109;-71
2022/07/29 20:26:15;;;;;;;10.38;9.38;;;;;;;23.52;65.20;98906.03;5087270;28;20102;-70
2022/07/29 20:28:43;;;;;;;10.25;9.15;;;;;;;23.33;65.63;98896.50;5086774;28;20056;-71
2022/07/29 20:31:10;;;;;;;8.82;7.93;;;;;;;23.07;65.62;98849.97;5087630;28;20063;-71
2022/07/29 20:33:39;;;;;;;8.25;7.47;;;;;;;23.23;65.80;98875.06;5086983;28;20060;-71
2022/07/29 20:36:06;;;;;;;8.35;7.20;;;;;;;23.47;65.47;98919.25;5087385;28;20227;-71
2022/07/29 20:38:33;;;;;;;7.32;6.63;;;;;;;23.44;65.83;98909.63;5086918;28;20262;-70
2022/07/29 20:41:01;;;;;;;7.32;6.63;;;;;;;23.40;65.88;98902.88;5087339;28;20079;-71
2022/07/29 20:43:28;;;;;;;9.10;7.22;;;;;;;22.74;65.99;98798.78;5087045;28;20082;-71
2022/07/29 20:45:55;;;;;;;7.88;7.18;;;;;;;23.27;65.54;98876.44;5086997;28;20228;-70
2022/07/29 20:48:22;;;;;;;8.15;7.35;;;;;;;23.39;65.72;98900.38;5086621;28;20070;-71
2022/07/29 20:50:51;;;;;;;9.32;7.13;;;;;;;22.88;65.75;98819.66;5086970;28;20044;-71
2022/07/29 20:53:19;;;;;;;8.48;7.68;;;;;;;23.17;65.47;98870.38;5087457;28;20299;-70
2022/07/29 20:55:46;;;;;;;8.10;7.30;;;;;;;23.31;65.77;98899.38;5086732;28;20086;-71
2022/07/29 20:58:13;;;;;;;8.50;7.68;;;;;;;23.25;66.53;98894.66;5086998;28;20064;-70
2022/07/29 21:00:41;;;;;;;7.72;7.03;;;;;;;23.09;66.03;98873.09;5086945;28;20040;-71
2022/07/29 21:03:08;;;;;;;7.72;6.90;;;;;;;23.22;65.86;98886.91;5086617;28;20255;-70
2022/07/29 21:05:37;;;;;;;9.23;8.32;;;;;;;23.05;66.12;98894.25;5087199;28;20032;-70
2022/07/29 21:08:06;;;;;;;8.65;7.80;;;;;;;23.13;66.47;98889.81;5086397;28;20204;-70
2022/07/29 21:10:35;;;;;;;8.48;7.60;;;;;;;22.91;67.06;98880.63;5086397;28;20063;-70
2022/07/29 21:13:02;;;;;;;8.45;7.30;;;;;;;23.10;66.16;98882.91;5086058;28;20235;-72
2022/07/29 21:15:31;;;;;;;7.15;6.53;;;;;;;23.11;65.68;98881.03;5086447;28;20220;-69
2022/07/29 21:18:01;;;;;;;8.68;7.03;;;;;;;22.99;65.96;98880.59;5085995;28;20059;-69
2022/07/29 21:20:29;;;;;;;7.95;7.25;;;;;;;22.76;66.53;98887.75;5086227;28;20148;-70
2022/07/29 21:22:56;;;;;;;8.38;7.57;;;;;;;22.91;66.09;98883.31;5086458;28;20059;-70
2022/07/29 21:25:25;;;;;;;8.73;7.82;;;;;;;22.98;65.72;98877.03;5085795;28;20087;-70
2022/07/29 21:30:38;;;;;;;10.43;9.05;;;;;;;22.88;65.90;98871.00;5086149;28;20047;-70
2022/07/29 21:33:05;;;;;;;10.55;9.43;;;;;;;22.95;65.69;98869.28;5085797;28;20060;-69
2022/07/29 21:35:32;;;;;;;12.55;11.38;;;;;;;22.96;65.33;98864.72;5085929;28;20118;-70
2022/07/29 21:37:59;;;;;;;12.05;10.95;;;;;;;22.85;65.23;98841.63;5086185;28;20050;-69
2022/07/29 21:40:29;;;;;;;17.35;15.60;;;;;;;22.96;65.45;98862.03;5086135;28;20052;-69
2022/07/29 21:42:56;;;;;;;23.08;17.55;;;;;;;22.48;65.63;98792.78;5086094;28;20102;-69
2022/07/29 21:45:23;;;;;;;15.35;13.80;;;;;;;22.79;65.91;98838.78;5085647;28;20056;-69
2022/07/29 21:47:50;;;;;;;12.55;11.35;;;;;;;22.92;65.51;98852.56;5085620;28;20056;-70
2022/07/29 21:50:18;;;;;;;9.07;8.27;;;;;;;22.91;65.32;98850.91;5086091;28;20060;-70
2022/07/29 21:52:46;;;;;;;8.80;7.82;;;;;;;22.92;65.21;98856.13;5085707;28;20064;-71
2022/07/29 21:55:14;;;;;;;8.18;7.40;;;;;;;22.92;65.10;98858.81;5085719;28;20121;-70
2022/07/29 21:57:42;;;;;;;8.57;7.80;;;;;;;22.69;65.99;98856.03;5085574;28;20060;-71
2022/07/29 22:00:14;;;;;;;8.55;7.30;;;;;;;22.67;65.62;98841.88;5085201;28;20053;-71
2022/07/29 22:02:42;;;;;;;8.23;7.45;;;;;;;22.69;65.26;98833.59;5085502;28;20064;-69
2022/07/29 22:05:10;;;;;;;9.27;8.48;;;;;;;22.77;65.65;98840.81;5083728;28;20056;-69
2022/07/29 22:07:38;;;;;;;9.13;8.23;;;;;;;22.80;65.44;98852.13;5085072;28;20114;-69
2022/07/29 22:10:06;;;;;;;8.57;7.75;;;;;;;22.35;65.47;98791.44;5067428;28;20201;-69
2022/07/29 22:12:33;;;;;;;7.72;6.90;;;;;;;22.75;65.51;98848.25;5085424;28;20053;-70
2022/07/29 22:15:03;;;;;;;10.35;9.25;;;;;;;22.80;65.14;98840.47;5085289;28;20056;-70
2022/07/29 22:17:30;;;;;;;10.75;9.68;;;;;;;22.77;65.18;98847.06;5067853;28;20239;-70
2022/07/29 22:19:58;;;;;;;9.15;7.70;;;;;;;22.62;65.47;98855.03;5085181;28;20245;-70
2022/07/29 22:22:25;;;;;;;8.48;7.68;;;;;;;22.67;65.24;98858.06;5067488;28;20056;-69
2022/07/29 22:24:52;;;;;;;7.53;6.82;;;;;;;22.68;65.41;98865.16;5084710;28;20056;-70
2022/07/29 22:27:20;;;;;;;7.40;6.70;;;;;;;22.71;65.06;98858.56;5085078;28;20060;-70
2022/07/29 22:29:47;;;;;;;7.13;6.43;;;;;;;22.31;65.29;98797.34;5084667;28;20060;-71
2022/07/29 22:32:15;;;;;;;8.57;7.78;;;;;;;22.69;65.52;98853.34;5085190;28;20247;-71
2022/07/29 22:34:43;;;;;;;7.88;7.18;;;;;;;22.68;65.16;98864.31;5085156;28;20056;-70
2022/07/29 22:37:10;;;;;;;8.23;7.43;;;;;;;22.66;65.25;98858.25;5067630;28;20066;-70
2022/07/29 22:39:38;;;;;;;13.48;12.18;;;;;;;22.64;65.25;98849.47;5084560;28;20072;-71
2022/07/29 22:42:05;;;;;;;18.25;16.33;;;;;;;22.63;65.58;98854.03;5085124;28;20052;-70
2022/07/29 22:44:32;;;;;;;12.98;11.68;;;;;;;22.48;66.16;98854.88;5085222;28;20040;-70
2022/07/29 22:46:59;;;;;;;12.15;11.00;;;;;;;22.46;65.91;98844.25;5085138;28;20044;-70
2022/07/29 22:49:28;;;;;;;9.85;8.95;;;;;;;22.59;65.60;98841.88;5084511;28;20312;-70
2022/07/29 22:51:56;;;;;;;8.15;6.95;;;;;;;22.46;65.20;98830.75;5084448;28;20109;-70
2022/07/29 22:54:23;;;;;;;7.15;6.10;;;;;;;22.43;65.23;98825.69;5084489;28;20308;-70
2022/07/29 22:56:50;;;;;;;6.97;6.32;;;;;;;22.56;65.28;98846.78;5084565;28;20056;-70
2022/07/29 22:59:18;;;;;;;7.13;6.43;;;;;;;22.53;65.42;98842.56;5084871;28;20056;-69
2022/07/29 23:01:45;;;;;;;6.85;6.15;;;;;;;19.81;64.75;98394.84;5084489;28;20089;-70
2022/07/29 23:04:12;;;;;;;7.10;6.40;;;;;;;22.51;65.21;98846.44;5084852;28;20307;-70
2022/07/29 23:06:41;;;;;;;7.28;6.40;;;;;;;22.38;65.55;98839.69;5084946;28;20040;-70
2022/07/29 23:09:08;;;;;;;7.00;6.30;;;;;;;22.42;65.58;98840.22;5084844;28;20056;-70
2022/07/29 23:11:35;;;;;;;7.45;6.75;;;;;;;22.46;65.21;98844.25;5084813;28;20242;-70
2022/07/29 23:14:03;;;;;;;6.38;5.78;;;;;;;22.49;65.24;98843.91;5084801;28;20040;-70
2022/07/29 23:16:30;;;;;;;8.63;7.60;;;;;;;22.49;64.98;98848.47;5084663;28;20068;-70
2022/07/29 23:18:57;;;;;;;8.57;6.38;;;;;;;22.46;65.08;98857.75;5067044;28;20102;-70
2022/07/29 23:21:25;;;;;;;7.00;6.05;;;;;;;22.35;64.79;98837.34;5084719;28;20060;-70
2022/07/29 23:23:53;;;;;;;7.20;6.35;;;;;;;22.36;64.61;98859.78;5084317;28;20056;-70
2022/07/29 23:26:20;;;;;;;6.35;5.40;;;;;;;22.45;64.61;98898.44;5084839;28;20102;-70
2022/07/29 23:28:48;;;;;;;5.90;5.30;;;;;;;22.09;65.34;98913.09;5084606;28;20056;-70
2022/07/29 23:31:15;;;;;;;6.03;5.43;;;;;;;22.00;65.70;98915.97;5084530;28;20060;-70
2022/07/29 23:33:42;;;;;;;6.47;5.88;;;;;;;21.93;65.57;98907.69;5084697;28;20064;-69
2022/07/29 23:36:09;;;;;;;6.25;5.65;;;;;;;21.84;65.62;98914.09;5087187;28;20060;-69
2022/07/29 23:38:39;;;;;;;5.97;5.40;;;;;;;21.93;65.28;98918.50;5088340;28;20063;-71
2022/07/29 23:41:08;;;;;;;6.95;5.60;;;;;;;21.68;65.14;98885.22;5070571;28;20082;-71
2022/07/29 23:43:36;;;;;;;7.72;4.90;;;;;;;21.34;65.18;98866.44;5088370;28;20219;-71
2022/07/29 23:46:03;;;;;;;7.13;5.95;;;;;;;21.11;64.96;98814.19;5088581;28;20059;-70
2022/07/29 23:48:31;;;;;;;5.35;4.85;;;;;;;21.73;65.39;98927.88;5088218;28;20366;-71
2022/07/29 23:50:59;;;;;;;5.95;5.28;;;;;;;21.47;65.30;98909.09;5088060;28;20102;-70
2022/07/29 23:53:27;;;;;;;8.30;4.40;;;;;;;21.64;65.11;98923.47;5087863;28;20131;-70
2022/07/29 23:55:55;;;;;;;5.88;3.97;;;;;;;21.57;65.44;98925.97;5087614;28;20110;-71
2022/07/29 23:58:24;;;;;;;5.15;4.65;;;;;;;21.37;65.88;98913.78;5087704;28;20049;-71
